Flight Track Log - Related Links

Times and Time Zones

All times are in EDT time to prevent confusion due to time zone crossing. See the N960DL flight status page for this flight to view local times or setup timezone preferences in your user account.

Time Position Orientation Groundspeed Altitude Reporting Facility
EDT Latitude Longitude Course Direction KTS MPH feet Rate Location/Type
Sun 04:34:44 PM 39.9042 -84.1989 180° South 159 183 1,600  Level Indianapolis Center
Sun 04:35:08 PM 39.9097 -84.1806 68° East 156 180 2,300 1,553 Climbing Indianapolis Center
Sun 04:36:09 PM 39.8875 -84.1308 120° Southeast 237 273 3,800 2,537 Climbing Indianapolis Center
Sun 04:37:00 PM 39.7060 -84.5249 241° Southwest  Level FlightAware Approximate
Sun 04:37:11 PM 39.8358 -84.2114 230° Southwest 266 306 7,500  Level Indianapolis Center
Sun 04:38:00 PM 39.6528 -84.6398 232° Southwest  Level FlightAware Approximate
Sun 04:38:13 PM 39.7972 -84.2992 240° Southwest 274 315 9,900  Level Indianapolis Center
Sun 04:39:00 PM 39.5720 -84.7000 180° South  Level FlightAware Approximate
Sun 04:39:15 PM 39.7558 -84.3897 239° Southwest 282 325 12,100  Level Indianapolis Center
Sun 04:40:00 PM 39.4686 -84.7000 180° South  Level FlightAware Approximate
Sun 04:40:17 PM 39.6831 -84.4436 210° Southwest 300 345 14,400  Level Indianapolis Center
Sun 04:41:19 PM 39.5992 -84.5050 209° Southwest 336 387 15,500 1,306 Climbing Indianapolis Center
Sun 04:42:21 PM 39.5019 -84.5792 210° Southwest 394 453 17,100 1,839 Climbing Indianapolis Center
Sun 04:43:23 PM 39.4000 -84.6531 209° Southwest 413 475 19,300 2,032 Climbing Indianapolis Center
Sun 04:44:25 PM 39.2811 -84.7436 211° Southwest 422 486 21,300 1,742 Climbing Indianapolis Center
Sun 04:45:27 PM 39.1733 -84.8233 210° Southwest 438 504 22,900 1,839 Climbing Indianapolis Center
Sun 04:46:29 PM 39.0758 -84.8972 210° Southwest 443 510 25,100 1,935 Climbing Indianapolis Center
Sun 04:47:31 PM 38.9722 -84.9739 210° Southwest 431 496 26,900 919 Climbing Indianapolis Center
Sun 04:48:33 PM 38.8517 -85.0653 211° Southwest 419 482 27,000 48 Climbing Indianapolis Center
Sun 04:49:35 PM 38.7503 -85.1400 210° Southwest 418 481 27,000  Level Indianapolis Center
Sun 04:50:37 PM 38.6486 -85.2167 211° Southwest 421 484 27,000  Level Indianapolis Center
Sun 04:51:39 PM 38.5478 -85.2908 210° Southwest 418 481 27,000 629 Level Indianapolis Center
Sun 04:52:41 PM 38.4467 -85.3656 210° Southwest 417 480 28,300 1,500 Climbing Indianapolis Center
Sun 04:53:43 PM 38.3361 -85.4147 199° South 416 479 30,100 1,500 Climbing Indianapolis Center
Sun 04:54:45 PM 38.2331 -85.4781 206° Southwest 411 473 31,400 1,113 Climbing Indianapolis Center
Sun 04:55:47 PM 38.1331 -85.5481 209° Southwest 408 470 32,400 774 Climbing Indianapolis Center
Sun 04:56:49 PM 38.0178 -85.6333 210° Southwest 402 463 33,000 290 Climbing Indianapolis Center
Sun 04:57:51 PM 37.9225 -85.7081 212° Southwest 400 460 33,000  Level Indianapolis Center
Sun 04:58:53 PM 37.8244 -85.7822 211° Southwest 406 467 33,000  Level Indianapolis Center
Sun 04:59:55 PM 37.7308 -85.8561 212° Southwest 397 457 33,000  Level Indianapolis Center
Sun 05:00:57 PM 37.6333 -85.9275 210° Southwest 400 460 33,000  Level Indianapolis Center
Sun 05:01:59 PM 37.5350 -86.0022 211° Southwest 394 453 33,000  Level Indianapolis Center
Sun 05:03:01 PM 37.4383 -86.0733 210° Southwest 398 458 33,000  Level Indianapolis Center
Sun 05:04:03 PM 37.3431 -86.1433 210° Southwest 395 455 33,000  Level Indianapolis Center
Sun 05:04:34 PM 37.2908 -86.1831 211° Southwest 398 458 33,000  Level Memphis Center
Sun 05:05:34 PM 37.1972 -86.2506 210° Southwest 398 458 33,000  Level Memphis Center
Sun 05:06:34 PM 37.1017 -86.3231 211° Southwest 398 458 33,000  Level Memphis Center
Sun 05:07:34 PM 37.0081 -86.3900 210° Southwest 389 448 33,000  Level Memphis Center
Sun 05:08:34 PM 36.9097 -86.4417 203° Southwest 391 450 33,000 -800 Level Memphis Center
Sun 05:09:34 PM 36.7886 -86.4372 178° South 386 444 31,400 -1,000 Descending Memphis Center
Sun 05:10:34 PM 36.6717 -86.4272 176° South 406 467 31,000 -200 Descending Memphis Center
Sun 05:11:34 PM 36.5589 -86.4200 177° South 413 475 31,000  Level Memphis Center
Sun 05:12:34 PM 36.4439 -86.4128 177° South 413 475 31,000  Level Memphis Center
Sun 05:13:34 PM 36.3311 -86.4053 177° South 413 475 31,000  Level Memphis Center
Sun 05:14:34 PM 36.2164 -86.4006 178° South 413 475 31,000  Level Memphis Center
Sun 05:15:34 PM 36.1139 -86.3928 176° South 418 481 31,000  Level Memphis Center
Sun 05:17:05 PM 35.9381 -86.3828 177° South 452 520 31,000  Level Atlanta Center
Sun 05:18:05 PM 35.8233 -86.3744 177° South 430 495 31,000  Level Atlanta Center
Sun 05:19:05 PM 35.7114 -86.3406 166° South 419 482 31,000  Level Atlanta Center
Sun 05:20:05 PM 35.6106 -86.2586 147° Southeast 419 482 31,000  Level Atlanta Center
Sun 05:21:05 PM 35.5119 -86.1794 147° Southeast 426 490 31,000  Level Atlanta Center
Sun 05:22:05 PM 35.4028 -86.0925 147° Southeast 433 498 31,000 -500 Level Atlanta Center
Sun 05:23:05 PM 35.3061 -86.0161 147° Southeast 427 491 30,000 -1,000 Descending Atlanta Center
Sun 05:24:05 PM 35.2175 -85.9403 145° Southeast 402 463 29,000 -1,200 Descending Atlanta Center
Sun 05:25:05 PM 35.1411 -85.8828 148° Southeast 383 441 27,600 -1,350 Descending Atlanta Center
Sun 05:26:05 PM 35.0544 -85.8147 147° Southeast 377 434 26,300 -1,250 Descending Atlanta Center
Sun 05:27:05 PM 34.9719 -85.7497 147° Southeast 367 422 25,100 -1,100 Descending Atlanta Center
Sun 05:28:05 PM 34.8894 -85.6847 147° Southeast 367 422 24,100 -550 Descending Atlanta Center
Sun 05:29:05 PM 34.8047 -85.6172 147° Southeast 367 422 24,000 -50 Descending Atlanta Center
Sun 05:30:05 PM 34.7219 -85.5550 148° Southeast 367 422 24,000  Level Atlanta Center
Sun 05:31:05 PM 34.6353 -85.4828 146° Southeast 367 422 24,000 -600 Level Atlanta Center
Sun 05:32:05 PM 34.5422 -85.4131 148° Southeast 373 429 22,800 -1,550 Descending Atlanta Center
Sun 05:33:05 PM 34.4553 -85.3461 148° Southeast 380 437 20,900 -2,150 Descending Atlanta Center
Sun 05:34:05 PM 34.3619 -85.2692 146° Southeast 375 432 18,500 -1,900 Descending Atlanta Center
Sun 05:35:05 PM 34.2875 -85.2153 149° Southeast 363 418 17,100 -1,600 Descending Atlanta Center
Sun 05:36:05 PM 34.2067 -85.1517 147° Southeast 363 418 15,300 -1,850 Descending Atlanta Center
Sun 05:37:05 PM 34.1300 -85.0778 141° Southeast 352 405 13,400 -1,150 Descending Atlanta Center
Sun 05:38:05 PM 34.0722 -85.0019 133° Southeast 328 377 13,000 -500 Descending Atlanta Center
Sun 05:39:05 PM 34.0039 -84.9508 148° Southeast 297 342 12,400 -1,200 Descending Atlanta Center
Sun 05:40:05 PM 33.9247 -84.9275 166° South 284 327 10,600 -1,600 Descending Atlanta Center
Sun 05:41:05 PM 33.8475 -84.9142 172° South 284 327 9,200 -1,000 Descending Atlanta Center
Sun 05:42:05 PM 33.7661 -84.9108 178° South 284 327 8,600 -800 Descending Atlanta Center
Sun 05:43:05 PM 33.6847 -84.9050 177° South 294 338 7,600 -800 Descending Atlanta Center
Sun 05:44:05 PM 33.6392 -84.8372 129° Southeast 251 289 7,000 -519 Descending Atlanta Center
Sun 05:44:26 PM 33.6333 -84.8000 101° East 263 303 6,900 -1,310 Descending Atlanta TRACON
Sun 05:45:32 PM 33.6333 -84.7000 90° East 262 302 5,100 -1,450 Descending Atlanta TRACON
Sun 05:46:26 PM 33.6333 -84.6333 90° East 225 259 4,000 -1,222 Descending Atlanta TRACON

Login

Don't have an account? Register now (free) for customized features, flight alerts, and more!